sensor_id;sensor_type;location;lat;lon;timestamp;pressure;altitude;pressure_sealevel;temperature;humidity
70046;BME280;57385;41.832;23.494;2022-07-29T00:00:08;91289.41;;;17.95;73.69
70046;BME280;57385;41.832;23.494;2022-07-29T00:00:28;91292.56;;;17.97;73.51
70046;BME280;57385;41.832;23.494;2022-07-29T00:00:47;91295.66;;;17.99;73.54
70046;BME280;57385;41.832;23.494;2022-07-29T00:01:07;91291.78;;;17.96;74.02
70046;BME280;57385;41.832;23.494;2022-07-29T00:01:26;91287.59;;;17.95;74.07
70046;BME280;57385;41.832;23.494;2022-07-29T00:01:45;91293.06;;;17.94;74.01
70046;BME280;57385;41.832;23.494;2022-07-29T00:02:05;91286.06;;;17.94;73.93
70046;BME280;57385;41.832;23.494;2022-07-29T00:02:27;91293.34;;;17.97;73.95
70046;BME280;57385;41.832;23.494;2022-07-29T00:02:47;91293.59;;;17.96;74.18
70046;BME280;57385;41.832;23.494;2022-07-29T00:03:06;91292.56;;;17.97;74.08
70046;BME280;57385;41.832;23.494;2022-07-29T00:03:26;91292.56;;;17.97;74.07
70046;BME280;57385;41.832;23.494;2022-07-29T00:03:45;91289.41;;;17.95;74.01
70046;BME280;57385;41.832;23.494;2022-07-29T00:04:05;91293.06;;;17.94;74.13
70046;BME280;57385;41.832;23.494;2022-07-29T00:04:24;91281.91;;;17.93;74.02
70046;BME280;57385;41.832;23.494;2022-07-29T00:04:44;91294.63;;;17.95;74.06
70046;BME280;57385;41.832;23.494;2022-07-29T00:05:04;91289.69;;;17.93;74.22
70046;BME280;57385;41.832;23.494;2022-07-29T00:05:24;91291.00;;;17.96;74.09
70046;BME280;57385;41.832;23.494;2022-07-29T00:05:43;91294.38;;;17.96;74.09
70046;BME280;57385;41.832;23.494;2022-07-29T00:06:03;91289.41;;;17.95;74.01
70046;BME280;57385;41.832;23.494;2022-07-29T00:06:22;91288.41;;;17.96;73.82
70046;BME280;57385;41.832;23.494;2022-07-29T00:06:42;91289.69;;;17.93;73.84
70046;BME280;57385;41.832;23.494;2022-07-29T00:07:02;91292.03;;;17.95;74.34
70046;BME280;57385;41.832;23.494;2022-07-29T00:07:22;91291.00;;;17.96;73.92
70046;BME280;57385;41.832;23.494;2022-07-29T00:07:41;91291.00;;;17.96;74.14
70046;BME280;57385;41.832;23.494;2022-07-29T00:08:01;91296.19;;;17.96;74.44
70046;BME280;57385;41.832;23.494;2022-07-29T00:08:20;91290.47;;;17.94;74.28
70046;BME280;57385;41.832;23.494;2022-07-29T00:08:40;91286.59;;;17.86;73.90
70046;BME280;57385;41.832;23.494;2022-07-29T00:08:59;91283.22;;;17.86;73.72
70046;BME280;57385;41.832;23.494;2022-07-29T00:09:19;91283.47;;;17.84;73.79
70046;BME280;57385;41.832;23.494;2022-07-29T00:09:38;91288.91;;;17.88;73.91
70046;BME280;57385;41.832;23.494;2022-07-29T00:09:57;91280.88;;;17.89;73.43
70046;BME280;57385;41.832;23.494;2022-07-29T00:10:17;91283.72;;;17.88;73.70
70046;BME280;57385;41.832;23.494;2022-07-29T00:10:36;91279.84;;;17.85;73.94
70046;BME280;57385;41.832;23.494;2022-07-29T00:10:56;91282.19;;;17.87;74.20
70046;BME280;57385;41.832;23.494;2022-07-29T00:11:15;91286.06;;;17.89;73.90
70046;BME280;57385;41.832;23.494;2022-07-29T00:11:35;91286.84;;;17.90;73.97
70046;BME280;57385;41.832;23.494;2022-07-29T00:11:56;91290.72;;;17.92;74.12
70046;BME280;57385;41.832;23.494;2022-07-29T00:12:18;91279.06;;;17.90;74.15
70046;BME280;57385;41.832;23.494;2022-07-29T00:12:38;91286.31;;;17.88;73.73
70046;BME280;57385;41.832;23.494;2022-07-29T00:12:57;91286.84;;;17.90;73.88
70046;BME280;57385;41.832;23.494;2022-07-29T00:13:17;91277.75;;;17.87;73.57
70046;BME280;57385;41.832;23.494;2022-07-29T00:13:36;91284.25;;;17.90;73.64
70046;BME280;57385;41.832;23.494;2022-07-29T00:13:56;91282.69;;;17.89;73.87
70046;BME280;57385;41.832;23.494;2022-07-29T00:14:16;91283.97;;;17.91;73.94
70046;BME280;57385;41.832;23.494;2022-07-29T00:14:35;91280.34;;;17.92;73.98
70046;BME280;57385;41.832;23.494;2022-07-29T00:14:55;91276.72;;;17.88;73.80
70046;BME280;57385;41.832;23.494;2022-07-29T00:15:15;91287.09;;;17.93;73.94
70046;BME280;57385;41.832;23.494;2022-07-29T00:15:34;91292.28;;;17.93;74.29
70046;BME280;57385;41.832;23.494;2022-07-29T00:15:54;91280.63;;;17.91;74.22
70046;BME280;57385;41.832;23.494;2022-07-29T00:16:13;91288.41;;;17.96;74.12
70046;BME280;57385;41.832;23.494;2022-07-29T00:16:33;91290.47;;;17.94;74.25
70046;BME280;57385;41.832;23.494;2022-07-29T00:16:52;91287.88;;;17.94;74.29
70046;BME280;57385;41.832;23.494;2022-07-29T00:17:12;91274.91;;;17.89;74.39
70046;BME280;57385;41.832;23.494;2022-07-29T00:17:50;91286.31;;;17.93;74.11
70046;BME280;57385;41.832;23.494;2022-07-29T00:18:09;91282.69;;;17.94;73.92
70046;BME280;57385;41.832;23.494;2022-07-29T00:18:29;91281.41;;;17.96;73.92
70046;BME280;57385;41.832;23.494;2022-07-29T00:18:48;91281.41;;;17.96;73.64
70046;BME280;57385;41.832;23.494;2022-07-29T00:19:08;91280.63;;;17.96;73.39
70046;BME280;57385;41.832;23.494;2022-07-29T00:19:27;91273.59;;;17.91;73.62
70046;BME280;57385;41.832;23.494;2022-07-29T00:19:46;91283.75;;;17.98;73.69
70046;BME280;57385;41.832;23.494;2022-07-29T00:20:06;91271.03;;;17.96;73.63
70046;BME280;57385;41.832;23.494;2022-07-29T00:20:26;91271.25;;;17.95;73.50
70046;BME280;57385;41.832;23.494;2022-07-29T00:20:46;91271.81;;;17.97;73.40
70046;BME280;57385;41.832;23.494;2022-07-29T00:21:05;91273.63;;;17.96;73.41
70046;BME280;57385;41.832;23.494;2022-07-29T00:21:25;91270.22;;;17.91;73.94
70046;BME280;57385;41.832;23.494;2022-07-29T00:21:44;91264.78;;;17.87;73.58
70046;BME280;57385;41.832;23.494;2022-07-29T00:22:04;91267.13;;;17.89;73.82
70046;BME280;57385;41.832;23.494;2022-07-29T00:22:23;91264.28;;;17.90;73.85
70046;BME280;57385;41.832;23.494;2022-07-29T00:22:42;91274.91;;;17.94;73.44
70046;BME280;57385;41.832;23.494;2022-07-29T00:23:02;91269.22;;;17.97;73.58
70046;BME280;57385;41.832;23.494;2022-07-29T00:23:22;91261.66;;;17.90;73.92
70046;BME280;57385;41.832;23.494;2022-07-29T00:23:41;91264.00;;;17.92;73.68
70046;BME280;57385;41.832;23.494;2022-07-29T00:24:01;91260.38;;;17.93;73.54
70046;BME280;57385;41.832;23.494;2022-07-29T00:24:20;91262.97;;;17.93;73.60
70046;BME280;57385;41.832;23.494;2022-07-29T00:24:40;91264.03;;;17.97;73.56
70046;BME280;57385;41.832;23.494;2022-07-29T00:24:59;91264.50;;;17.94;73.47
70046;BME280;57385;41.832;23.494;2022-07-29T00:25:19;91255.44;;;17.91;73.66
70046;BME280;57385;41.832;23.494;2022-07-29T00:25:38;91268.16;;;17.98;73.77
70046;BME280;57385;41.832;23.494;2022-07-29T00:25:58;91263.47;;;17.95;74.00
70046;BME280;57385;41.832;23.494;2022-07-29T00:26:17;91269.97;;;17.97;73.81
70046;BME280;57385;41.832;23.494;2022-07-29T00:26:37;91265.06;;;17.96;73.67
70046;BME280;57385;41.832;23.494;2022-07-29T00:26:56;91275.44;;;18.01;73.74
70046;BME280;57385;41.832;23.494;2022-07-29T00:27:16;91271.28;;;18.00;73.65
70046;BME280;57385;41.832;23.494;2022-07-29T00:27:36;91268.69;;;18.00;73.54
70046;BME280;57385;41.832;23.494;2022-07-29T00:27:55;91273.34;;;17.98;73.64
70046;BME280;57385;41.832;23.494;2022-07-29T00:28:15;91268.69;;;18.00;73.48
70046;BME280;57385;41.832;23.494;2022-07-29T00:28:34;91266.63;;;17.97;73.62
70046;BME280;57385;41.832;23.494;2022-07-29T00:28:54;91266.63;;;17.97;73.68
70046;BME280;57385;41.832;23.494;2022-07-29T00:29:13;91268.69;;;18.00;73.40
70046;BME280;57385;41.832;23.494;2022-07-29T00:29:33;91265.84;;;17.96;73.65
70046;BME280;57385;41.832;23.494;2022-07-29T00:29:52;91270.22;;;18.01;73.24
70046;BME280;57385;41.832;23.494;2022-07-29T00:30:12;91276.47;;;18.00;73.39
70046;BME280;57385;41.832;23.494;2022-07-29T00:30:31;91269.72;;;17.99;73.45
70046;BME280;57385;41.832;23.494;2022-07-29T00:30:51;91281.66;;;18.00;73.71
70046;BME280;57385;41.832;23.494;2022-07-29T00:31:10;91279.31;;;17.98;73.56
70046;BME280;57385;41.832;23.494;2022-07-29T00:31:30;91273.84;;;17.95;73.72
70046;BME280;57385;41.832;23.494;2022-07-29T00:31:49;91268.66;;;17.95;74.01
70046;BME280;57385;41.832;23.494;2022-07-29T00:32:09;91278.53;;;17.93;73.72
70046;BME280;57385;41.832;23.494;2022-07-29T00:32:28;91278.28;;;17.89;73.91
70046;BME280;57385;41.832;23.494;2022-07-29T00:32:48;91282.69;;;17.94;73.94
70046;BME280;57385;41.832;23.494;2022-07-29T00:33:07;91280.63;;;17.91;73.92
70046;BME280;57385;41.832;23.494;2022-07-29T00:33:28;91278.25;;;17.94;73.79
70046;BME280;57385;41.832;23.494;2022-07-29T00:33:48;91276.97;;;17.92;74.01
70046;BME280;57385;41.832;23.494;2022-07-29T00:34:07;91276.47;;;17.90;74.13
70046;BME280;57385;41.832;23.494;2022-07-29T00:34:26;91274.91;;;17.89;73.75
70046;BME280;57385;41.832;23.494;2022-07-29T00:34:46;91273.63;;;17.86;73.96
70046;BME280;57385;41.832;23.494;2022-07-29T00:35:06;91273.88;;;17.85;73.96
70046;BME280;57385;41.832;23.494;2022-07-29T00:35:26;91277.50;;;17.89;74.08
70046;BME280;57385;41.832;23.494;2022-07-29T00:35:45;91280.09;;;17.89;74.00
70046;BME280;57385;41.832;23.494;2022-07-29T00:36:04;91280.09;;;17.89;73.70
70046;BME280;57385;41.832;23.494;2022-07-29T00:36:24;91274.41;;;17.87;74.02
70046;BME280;57385;41.832;23.494;2022-07-29T00:36:43;91283.47;;;17.89;74.04
70046;BME280;57385;41.832;23.494;2022-07-29T00:37:03;91279.31;;;17.88;74.14
70046;BME280;57385;41.832;23.494;2022-07-29T00:37:22;91279.59;;;17.87;73.58
70046;BME280;57385;41.832;23.494;2022-07-29T00:37:42;91277.75;;;17.87;73.86
70046;BME280;57385;41.832;23.494;2022-07-29T00:38:01;91272.84;;;17.86;74.17
70046;BME280;57385;41.832;23.494;2022-07-29T00:38:20;91276.47;;;17.90;73.86
70046;BME280;57385;41.832;23.494;2022-07-29T00:38:40;91270.75;;;17.88;74.25
70046;BME280;57385;41.832;23.494;2022-07-29T00:38:59;91271.81;;;17.87;73.97
70046;BME280;57385;41.832;23.494;2022-07-29T00:39:19;91269.47;;;17.85;74.06
70046;BME280;57385;41.832;23.494;2022-07-29T00:39:38;91273.88;;;17.85;74.30
70046;BME280;57385;41.832;23.494;2022-07-29T00:39:58;91266.59;;;17.82;73.79
70046;BME280;57385;41.832;23.494;2022-07-29T00:40:17;91270.25;;;17.86;73.84
70046;BME280;57385;41.832;23.494;2022-07-29T00:40:37;91275.16;;;17.87;73.80
70046;BME280;57385;41.832;23.494;2022-07-29T00:40:56;91274.91;;;17.89;73.74
70046;BME280;57385;41.832;23.494;2022-07-29T00:41:16;91273.34;;;17.88;73.83
70046;BME280;57385;41.832;23.494;2022-07-29T00:41:36;91270.50;;;17.89;73.56
70046;BME280;57385;41.832;23.494;2022-07-29T00:41:55;91266.63;;;17.87;73.64
70046;BME280;57385;41.832;23.494;2022-07-29T00:42:15;91266.09;;;17.85;73.62
70046;BME280;57385;41.832;23.494;2022-07-29T00:42:47;91272.31;;;17.94;73.85
70046;BME280;57385;41.832;23.494;2022-07-29T00:43:07;91275.94;;;17.93;73.83
70046;BME280;57385;41.832;23.494;2022-07-29T00:43:26;91273.06;;;17.94;73.76
70046;BME280;57385;41.832;23.494;2022-07-29T00:43:46;91275.66;;;17.94;73.57
70046;BME280;57385;41.832;23.494;2022-07-29T00:44:05;91268.69;;;17.90;73.74
70046;BME280;57385;41.832;23.494;2022-07-29T00:44:25;91271.78;;;17.92;73.62
70046;BME280;57385;41.832;23.494;2022-07-29T00:44:44;91271.78;;;17.92;73.33
70046;BME280;57385;41.832;23.494;2022-07-29T00:45:04;91276.19;;;17.91;73.51
70046;BME280;57385;41.832;23.494;2022-07-29T00:45:24;91273.59;;;17.91;73.29
70046;BME280;57385;41.832;23.494;2022-07-29T00:45:43;91268.94;;;17.93;73.23
70046;BME280;57385;41.832;23.494;2022-07-29T00:46:03;91273.34;;;17.93;73.46
70046;BME280;57385;41.832;23.494;2022-07-29T00:46:22;91266.88;;;17.90;73.35
70046;BME280;57385;41.832;23.494;2022-07-29T00:46:42;91268.94;;;17.88;73.26
70046;BME280;57385;41.832;23.494;2022-07-29T00:47:01;91269.97;;;17.87;73.33
70046;BME280;57385;41.832;23.494;2022-07-29T00:47:21;91273.34;;;17.88;73.29
70046;BME280;57385;41.832;23.494;2022-07-29T00:47:40;91280.34;;;17.92;73.32
70046;BME280;57385;41.832;23.494;2022-07-29T00:48:01;91266.09;;;17.85;73.34
70046;BME280;57385;41.832;23.494;2022-07-29T00:48:21;91269.47;;;17.85;73.16
70046;BME280;57385;41.832;23.494;2022-07-29T00:48:40;91275.94;;;17.88;73.49
70046;BME280;57385;41.832;23.494;2022-07-29T00:49:00;91283.22;;;17.91;73.08
70046;BME280;57385;41.832;23.494;2022-07-29T00:49:19;91269.72;;;17.89;73.30
70046;BME280;57385;41.832;23.494;2022-07-29T00:49:40;91280.09;;;17.94;73.07
70046;BME280;57385;41.832;23.494;2022-07-29T00:50:00;91265.81;;;17.91;72.96
70046;BME280;57385;41.832;23.494;2022-07-29T00:50:19;91270.75;;;17.93;73.45
70046;BME280;57385;41.832;23.494;2022-07-29T00:50:39;91277.50;;;17.94;73.21
70046;BME280;57385;41.832;23.494;2022-07-29T00:50:59;91272.31;;;17.89;73.20
70046;BME280;57385;41.832;23.494;2022-07-29T00:51:20;91273.34;;;17.88;73.44
70046;BME280;57385;41.832;23.494;2022-07-29T00:51:40;91262.72;;;17.84;73.33
70046;BME280;57385;41.832;23.494;2022-07-29T00:52:04;91271.28;;;17.85;73.51
70046;BME280;57385;41.832;23.494;2022-07-29T00:52:23;91275.44;;;17.86;73.42
70046;BME280;57385;41.832;23.494;2022-07-29T00:52:43;91273.38;;;17.83;73.27
70046;BME280;57385;41.832;23.494;2022-07-29T00:53:04;91274.41;;;17.87;73.23
70046;BME280;57385;41.832;23.494;2022-07-29T00:53:25;91274.66;;;17.85;73.31
70046;BME280;57385;41.832;23.494;2022-07-29T00:53:44;91275.97;;;17.83;73.42
70046;BME280;57385;41.832;23.494;2022-07-29T00:54:05;91271.28;;;17.85;73.50
70046;BME280;57385;41.832;23.494;2022-07-29T00:54:24;91276.47;;;17.80;73.40
70046;BME280;57385;41.832;23.494;2022-07-29T00:54:44;91264.03;;;17.71;73.94
70046;BME280;57385;41.832;23.494;2022-07-29T00:55:05;91276.72;;;17.78;73.85
70046;BME280;57385;41.832;23.494;2022-07-29T00:55:25;91270.00;;;17.72;73.71
70046;BME280;57385;41.832;23.494;2022-07-29T00:55:44;91276.97;;;17.76;73.60
70046;BME280;57385;41.832;23.494;2022-07-29T00:56:04;91272.06;;;17.75;73.50
70046;BME280;57385;41.832;23.494;2022-07-29T00:56:24;91276.47;;;17.80;73.65
70046;BME280;57385;41.832;23.494;2022-07-29T00:56:43;91268.69;;;17.74;73.72
70046;BME280;57385;41.832;23.494;2022-07-29T00:57:03;91271.78;;;17.76;73.45
70046;BME280;57385;41.832;23.494;2022-07-29T00:57:22;91279.56;;;17.82;73.40
70046;BME280;57385;41.832;23.494;2022-07-29T00:57:43;91272.81;;;17.81;73.46
70046;BME280;57385;41.832;23.494;2022-07-29T00:58:03;91278.56;;;17.83;73.45
70046;BME280;57385;41.832;23.494;2022-07-29T00:58:24;91274.38;;;17.82;73.55
70046;BME280;57385;41.832;23.494;2022-07-29T00:58:44;91276.47;;;17.85;73.66
70046;BME280;57385;41.832;23.494;2022-07-29T00:59:04;91266.84;;;17.80;73.37
70046;BME280;57385;41.832;23.494;2022-07-29T00:59:25;91274.38;;;17.82;73.71
70046;BME280;57385;41.832;23.494;2022-07-29T00:59:45;91267.91;;;17.79;73.72
70046;BME280;57385;41.832;23.494;2022-07-29T01:00:07;91266.31;;;17.68;73.55
70046;BME280;57385;41.832;23.494;2022-07-29T01:00:28;91276.22;;;17.76;73.94
70046;BME280;57385;41.832;23.494;2022-07-29T01:00:48;91275.94;;;17.72;74.01
70046;BME280;57385;41.832;23.494;2022-07-29T01:01:07;91275.19;;;17.72;74.01
70046;BME280;57385;41.832;23.494;2022-07-29T01:01:27;91270.75;;;17.72;74.05
70046;BME280;57385;41.832;23.494;2022-07-29T01:01:46;91267.41;;;17.72;74.10
70046;BME280;57385;41.832;23.494;2022-07-29T01:02:05;91273.31;;;17.67;74.13
70046;BME280;57385;41.832;23.494;2022-07-29T01:02:25;91276.47;;;17.69;74.16
70046;BME280;57385;41.832;23.494;2022-07-29T01:02:46;91259.81;;;17.65;74.22
70046;BME280;57385;41.832;23.494;2022-07-29T01:03:06;91262.16;;;17.67;73.84
70046;BME280;57385;41.832;23.494;2022-07-29T01:03:25;91264.25;;;17.65;73.97
70046;BME280;57385;41.832;23.494;2022-07-29T01:03:44;91267.88;;;17.64;73.87
70046;BME280;57385;41.832;23.494;2022-07-29T01:04:05;91263.72;;;17.68;73.83
70046;BME280;57385;41.832;23.494;2022-07-29T01:04:25;91274.94;;;17.68;74.07
70046;BME280;57385;41.832;23.494;2022-07-29T01:04:45;91269.72;;;17.68;73.87
70046;BME280;57385;41.832;23.494;2022-07-29T01:05:05;91270.97;;;17.66;73.76
70046;BME280;57385;41.832;23.494;2022-07-29T01:05:27;91259.81;;;17.65;73.75
70046;BME280;57385;41.832;23.494;2022-07-29T01:05:47;91266.81;;;17.65;73.64
70046;BME280;57385;41.832;23.494;2022-07-29T01:06:06;91263.97;;;17.66;73.52
70046;BME280;57385;41.832;23.494;2022-07-29T01:06:26;91259.59;;;17.57;73.86
70046;BME280;57385;41.832;23.494;2022-07-29T01:06:47;91267.06;;;17.53;73.88
70046;BME280;57385;41.832;23.494;2022-07-29T01:07:07;91263.44;;;17.54;74.05
70046;BME280;57385;41.832;23.494;2022-07-29T01:07:27;91263.72;;;17.53;73.88
70046;BME280;57385;41.832;23.494;2022-07-29T01:07:52;91269.19;;;17.56;74.08
70046;BME280;57385;41.832;23.494;2022-07-29T01:08:13;91258.03;;;17.56;73.79
70046;BME280;57385;41.832;23.494;2022-07-29T01:08:33;91256.72;;;17.53;73.94
70046;BME280;57385;41.832;23.494;2022-07-29T01:08:53;91248.94;;;17.48;74.00
70046;BME280;57385;41.832;23.494;2022-07-29T01:09:13;91260.34;;;17.57;74.03
70046;BME280;57385;41.832;23.494;2022-07-29T01:09:34;91261.91;;;17.58;73.89
70046;BME280;57385;41.832;23.494;2022-07-29T01:09:55;91262.19;;;17.57;73.80
70046;BME280;57385;41.832;23.494;2022-07-29T01:10:16;91259.84;;;17.60;73.77
70046;BME280;57385;41.832;23.494;2022-07-29T01:10:37;91256.47;;;17.60;73.90
70046;BME280;57385;41.832;23.494;2022-07-29T01:10:57;91249.47;;;17.60;73.73
70046;BME280;57385;41.832;23.494;2022-07-29T01:11:17;91259.31;;;17.58;73.71
70046;BME280;57385;41.832;23.494;2022-07-29T01:11:38;91254.66;;;17.60;73.65
70046;BME280;57385;41.832;23.494;2022-07-29T01:11:58;91251.28;;;17.60;73.66
70046;BME280;57385;41.832;23.494;2022-07-29T01:12:25;91258.53;;;17.58;73.76
70046;BME280;57385;41.832;23.494;2022-07-29T01:12:48;91259.59;;;17.57;73.55
70046;BME280;57385;41.832;23.494;2022-07-29T01:13:09;91252.28;;;17.54;73.48
70046;BME280;57385;41.832;23.494;2022-07-29T01:13:30;91258.81;;;17.56;73.57
70046;BME280;57385;41.832;23.494;2022-07-29T01:13:50;91261.66;;;17.60;73.43
70046;BME280;57385;41.832;23.494;2022-07-29T01:14:10;91251.81;;;17.57;73.63
70046;BME280;57385;41.832;23.494;2022-07-29T01:14:31;91248.94;;;17.58;73.71
70046;BME280;57385;41.832;23.494;2022-07-29T01:14:52;91251.53;;;17.58;73.67
70046;BME280;57385;41.832;23.494;2022-07-29T01:15:12;91247.91;;;17.59;73.50
70046;BME280;57385;41.832;23.494;2022-07-29T01:15:34;91259.31;;;17.58;73.70
70046;BME280;57385;41.832;23.494;2022-07-29T01:16:03;91260.88;;;17.59;73.36
70046;BME280;57385;41.832;23.494;2022-07-29T01:16:35;91256.72;;;17.58;73.32
70046;BME280;57385;41.832;23.494;2022-07-29T01:17:12;91256.22;;;17.56;73.35
70046;BME280;57385;41.832;23.494;2022-07-29T01:18:22;91260.88;;;17.59;73.09
70046;BME280;57385;41.832;23.494;2022-07-29T01:18:46;91255.69;;;17.59;73.14
70046;BME280;57385;41.832;23.494;2022-07-29T01:19:16;91257.75;;;17.57;73.43
70046;BME280;57385;41.832;23.494;2022-07-29T01:20:00;91248.16;;;17.58;73.39
70046;BME280;57385;41.832;23.494;2022-07-29T01:21:55;91242.97;;;17.53;73.41
70046;BME280;57385;41.832;23.494;2022-07-29T01:24:39;91237.50;;;17.54;73.85
70046;BME280;57385;41.832;23.494;2022-07-29T01:25:54;91235.97;;;17.53;73.54
70046;BME280;57385;41.832;23.494;2022-07-29T01:27:44;91233.13;;;17.55;74.05
70046;BME280;57385;41.832;23.494;2022-07-29T01:28:44;91228.47;;;17.57;73.54
70046;BME280;57385;41.832;23.494;2022-07-29T01:29:45;91233.38;;;17.53;73.59
70046;BME280;57385;41.832;23.494;2022-07-29T01:30:07;91234.16;;;17.54;73.63
70046;BME280;57385;41.832;23.494;2022-07-29T01:30:28;91229.50;;;17.56;73.25
70046;BME280;57385;41.832;23.494;2022-07-29T01:30:51;91238.06;;;17.56;72.88
70046;BME280;57385;41.832;23.494;2022-07-29T01:31:11;91231.06;;;17.57;72.80
70046;BME280;57385;41.832;23.494;2022-07-29T01:31:51;91235.19;;;17.58;72.72
70046;BME280;57385;41.832;23.494;2022-07-29T01:32:19;91231.84;;;17.57;72.64
70046;BME280;57385;41.832;23.494;2022-07-29T01:32:42;91232.09;;;17.61;72.47
70046;BME280;57385;41.832;23.494;2022-07-29T01:33:07;91240.13;;;17.59;72.38
70046;BME280;57385;41.832;23.494;2022-07-29T01:33:29;91232.34;;;17.59;72.62
70046;BME280;57385;41.832;23.494;2022-07-29T01:33:58;91226.66;;;17.57;72.22
70046;BME280;57385;41.832;23.494;2022-07-29T01:34:21;91236.50;;;17.60;72.49
70046;BME280;57385;41.832;23.494;2022-07-29T01:34:53;91233.13;;;17.60;72.67
70046;BME280;57385;41.832;23.494;2022-07-29T01:35:38;91232.59;;;17.58;72.74
70046;BME280;57385;41.832;23.494;2022-07-29T01:35:59;91227.66;;;17.51;72.74
70046;BME280;57385;41.832;23.494;2022-07-29T01:36:30;91229.22;;;17.52;72.85
70046;BME280;57385;41.832;23.494;2022-07-29T01:36:55;91235.97;;;17.53;73.31
70046;BME280;57385;41.832;23.494;2022-07-29T01:37:47;91235.44;;;17.51;73.67
70046;BME280;57385;41.832;23.494;2022-07-29T01:38:21;91234.69;;;17.45;73.85
70046;BME280;57385;41.832;23.494;2022-07-29T01:38:44;91228.44;;;17.46;73.62
70046;BME280;57385;41.832;23.494;2022-07-29T01:39:12;91230.28;;;17.46;73.67
70046;BME280;57385;41.832;23.494;2022-07-29T01:39:35;91230.28;;;17.46;73.71
70046;BME280;57385;41.832;23.494;2022-07-29T01:39:57;91231.81;;;17.47;73.68
70046;BME280;57385;41.832;23.494;2022-07-29T01:40:22;91238.81;;;17.46;73.53
70046;BME280;57385;41.832;23.494;2022-07-29T01:40:49;91231.03;;;17.46;73.28
70046;BME280;57385;41.832;23.494;2022-07-29T01:41:14;91239.88;;;17.45;73.33
70046;BME280;57385;41.832;23.494;2022-07-29T01:41:36;91240.13;;;17.44;73.57
70046;BME280;57385;41.832;23.494;2022-07-29T01:42:34;91241.63;;;17.25;74.39
70046;BME280;57385;41.832;23.494;2022-07-29T01:42:57;91238.78;;;17.16;74.63
70046;BME280;57385;41.832;23.494;2022-07-29T01:43:21;91248.88;;;17.02;75.30
70046;BME280;57385;41.832;23.494;2022-07-29T01:43:57;91245.19;;;16.78;76.50
70046;BME280;57385;41.832;23.494;2022-07-29T01:44:20;91244.63;;;16.71;76.94
70046;BME280;57385;41.832;23.494;2022-07-29T01:44:50;91251.38;;;16.77;77.09
70046;BME280;57385;41.832;23.494;2022-07-29T01:45:19;91240.00;;;16.73;76.79
70046;BME280;57385;41.832;23.494;2022-07-29T01:45:45;91243.63;;;16.77;76.70
70046;BME280;57385;41.832;23.494;2022-07-29T01:46:09;91242.56;;;16.73;77.59
70046;BME280;57385;41.832;23.494;2022-07-29T01:46:33;91248.25;;;16.70;77.14
70046;BME280;57385;41.832;23.494;2022-07-29T01:46:56;91245.91;;;16.68;77.45
70046;BME280;57385;41.832;23.494;2022-07-29T01:47:20;91243.59;;;16.72;77.40
70046;BME280;57385;41.832;23.494;2022-07-29T01:47:46;91252.41;;;16.76;76.77
70046;BME280;57385;41.832;23.494;2022-07-29T01:49:16;91235.84;;;16.77;77.26
70046;BME280;57385;41.832;23.494;2022-07-29T01:49:24;91240.22;;;16.71;77.11
70046;BME280;57385;41.832;23.494;2022-07-29T01:49:42;91248.28;;;16.80;77.13
70046;BME280;57385;41.832;23.494;2022-07-29T01:50:08;91251.91;;;16.74;77.46
70046;BME280;57385;41.832;23.494;2022-07-29T01:50:34;91249.53;;;16.67;77.50
70046;BME280;57385;41.832;23.494;2022-07-29T01:51:23;91250.09;;;16.74;77.38
70046;BME280;57385;41.832;23.494;2022-07-29T01:51:54;91251.38;;;16.77;77.40
70046;BME280;57385;41.832;23.494;2022-07-29T01:52:33;91252.44;;;16.81;77.15
70046;BME280;57385;41.832;23.494;2022-07-29T01:53:00;91251.41;;;16.82;77.20
70046;BME280;57385;41.832;23.494;2022-07-29T01:53:33;91250.09;;;16.84;76.95
70046;BME280;57385;41.832;23.494;2022-07-29T01:54:46;91247.28;;;16.86;77.04
70046;BME280;57385;41.832;23.494;2022-07-29T01:55:13;91249.34;;;16.89;76.86
70046;BME280;57385;41.832;23.494;2022-07-29T01:55:40;91252.44;;;16.81;77.17
70046;BME280;57385;41.832;23.494;2022-07-29T01:56:02;91248.03;;;16.76;77.35
70046;BME280;57385;41.832;23.494;2022-07-29T01:56:23;91251.13;;;16.73;76.79
70046;BME280;57385;41.832;23.494;2022-07-29T01:56:45;91247.16;;;16.61;77.22
70046;BME280;57385;41.832;23.494;2022-07-29T01:57:08;91241.69;;;16.52;77.52
70046;BME280;57385;41.832;23.494;2022-07-29T01:57:32;91240.84;;;16.36;78.06
70046;BME280;57385;41.832;23.494;2022-07-29T01:57:53;91247.03;;;16.35;78.04
70046;BME280;57385;41.832;23.494;2022-07-29T01:58:17;91240.31;;;16.34;77.98
70046;BME280;57385;41.832;23.494;2022-07-29T01:58:41;91246.78;;;16.32;78.25
70046;BME280;57385;41.832;23.494;2022-07-29T01:59:04;91242.81;;;16.19;78.46
70046;BME280;57385;41.832;23.494;2022-07-29T01:59:25;91247.75;;;16.20;78.86
70046;BME280;57385;41.832;23.494;2022-07-29T01:59:47;91249.81;;;16.18;78.87
70046;BME280;57385;41.832;23.494;2022-07-29T02:00:08;91250.34;;;16.20;78.88
70046;BME280;57385;41.832;23.494;2022-07-29T02:00:33;91254.22;;;16.23;78.86
70046;BME280;57385;41.832;23.494;2022-07-29T02:00:54;91252.16;;;16.25;78.42
70046;BME280;57385;41.832;23.494;2022-07-29T02:01:15;91248.34;;;16.33;78.54
70046;BME280;57385;41.832;23.494;2022-07-29T02:01:39;91246.25;;;16.35;78.17
70046;BME280;57385;41.832;23.494;2022-07-29T02:02:01;91243.69;;;16.35;78.18
70046;BME280;57385;41.832;23.494;2022-07-29T02:02:22;91244.72;;;16.39;77.81
70046;BME280;57385;41.832;23.494;2022-07-29T02:02:44;91243.97;;;16.43;78.00
70046;BME280;57385;41.832;23.494;2022-07-29T02:03:09;91247.09;;;16.45;78.09
70046;BME280;57385;41.832;23.494;2022-07-29T02:03:31;91249.44;;;16.47;77.92
70046;BME280;57385;41.832;23.494;2022-07-29T02:03:53;91254.88;;;16.50;77.55